Time;durP1;ratioP1;P1;durP2;ratioP2;P2;SDS_P1;SDS_P2;PMS_P1;PMS_P2;Temp;Humidity;BMP_temperature;BMP_pressure;BME280_temperature;BME280_humidity;BME280_pressure;Samples;Min_cycle;Max_cycle;Signal;HPM_P1;HPM_P2
2022/05/03 00:00:29;;;;;;;36.35;27.75;;;8.10;99.90;;;;;;5009064;28;20108;-88
2022/05/03 00:03:26;;;;;;;35.13;25.52;;;8.20;99.90;;;;;;5008157;28;20041;-87
2022/05/03 00:06:29;;;;;;;34.08;26.25;;;8.10;99.90;;;;;;5001659;28;20180;-87
2022/05/03 00:09:27;;;;;;;37.22;27.42;;;8.10;99.90;;;;;;5010625;28;20180;-87
2022/05/03 00:12:19;;;;;;;36.22;27.67;;;8.00;99.90;;;;;;5004561;28;20042;-86
2022/05/03 00:15:11;;;;;;;34.72;26.85;;;8.00;99.90;;;;;;5015012;28;20042;-87
2022/05/03 00:17:59;;;;;;;35.55;25.42;;;8.00;99.90;;;;;;5001637;28;20210;-87
2022/05/03 00:20:48;;;;;;;32.17;25.25;;;8.00;99.90;;;;;;5014168;28;20057;-87
2022/05/03 00:23:36;;;;;;;34.58;25.30;;;7.90;99.90;;;;;;5014028;28;20325;-89
2022/05/03 00:26:23;;;;;;;36.35;26.27;;;7.80;99.90;;;;;;5015673;28;20061;-88
2022/05/03 00:29:14;;;;;;;42.35;27.08;;;7.80;99.90;;;;;;5003166;28;20126;-88
2022/05/03 00:32:03;;;;;;;32.10;25.83;;;7.80;99.90;;;;;;5014401;28;20046;-88
2022/05/03 00:34:50;;;;;;;33.47;26.20;;;7.80;99.90;;;;;;5002663;28;20041;-87
2022/05/03 00:37:37;;;;;;;37.30;27.00;;;7.70;99.90;;;;;;5008973;28;20079;-88
2022/05/03 00:40:25;;;;;;;33.60;26.55;;;7.60;99.90;;;;;;5007744;28;20046;-88
2022/05/03 00:43:37;;;;;;;39.85;27.27;;;7.60;99.90;;;;;;5011068;28;20047;-87
2022/05/03 00:46:30;;;;;;;43.40;28.65;;;7.60;99.90;;;;;;5004099;28;20042;-87
2022/05/03 00:49:41;;;;;;;44.90;29.30;;;7.60;99.90;;;;;;5014646;28;20421;-87
2022/05/03 00:52:43;;;;;;;36.67;28.20;;;7.70;99.90;;;;;;4991944;28;20053;-87
2022/05/03 00:55:48;;;;;;;37.83;27.90;;;7.60;99.90;;;;;;5014371;28;20053;-87
2022/05/03 00:58:54;;;;;;;35.72;28.08;;;7.60;99.90;;;;;;4986217;28;20077;-87
2022/05/03 01:02:03;;;;;;;37.78;28.98;;;7.50;99.90;;;;;;5011458;28;20084;-87
2022/05/03 01:05:09;;;;;;;37.63;29.15;;;7.60;99.90;;;;;;5007381;28;20038;-88
2022/05/03 01:08:01;;;;;;;39.22;29.17;;;7.60;99.90;;;;;;5014888;28;20053;-86
2022/05/03 01:11:30;;;;;;;43.15;31.10;;;7.50;99.90;;;;;;5011520;28;20188;-87
2022/05/03 01:14:57;;;;;;;45.22;32.45;;;7.40;99.90;;;;;;5003420;28;20100;-87
2022/05/03 01:18:03;;;;;;;48.03;32.95;;;7.40;99.90;;;;;;4992267;28;20475;-88
2022/05/03 01:21:02;;;;;;;47.13;33.58;;;7.30;99.90;;;;;;5009805;28;20077;-88
2022/05/03 01:24:24;;;;;;;51.38;36.42;;;7.30;99.90;;;;;;5000292;28;20050;-88
2022/05/03 01:27:40;;;;;;;48.13;34.85;;;7.40;99.90;;;;;;5010421;28;20494;-88
2022/05/03 01:30:30;;;;;;;52.90;38.08;;;7.40;99.90;;;;;;4973875;28;20626;-88
2022/05/03 01:33:40;;;;;;;52.38;36.30;;;7.40;99.90;;;;;;4966468;28;20062;-88
2022/05/03 01:36:45;;;;;;;53.17;38.90;;;7.40;99.90;;;;;;4961178;28;20054;-88
2022/05/03 01:40:17;;;;;;;60.63;41.05;;;7.50;99.90;;;;;;4972912;28;20106;-88
2022/05/03 01:43:20;;;;;;;56.55;38.22;;;7.60;99.90;;;;;;4961366;28;20177;-88
2022/05/03 01:46:16;;;;;;;49.20;36.95;;;7.40;99.90;;;;;;4973755;28;20074;-88
2022/05/03 01:52:52;;;;;;;49.13;35.50;;;7.20;99.90;;;;;;4968751;28;20055;-89
2022/05/03 01:56:03;;;;;;;47.78;33.88;;;7.10;99.90;;;;;;4962630;28;20082;-88
2022/05/03 01:59:08;;;;;;;50.22;36.22;;;7.00;99.90;;;;;;4972100;28;20043;-88
2022/05/03 02:02:02;;;;;;;55.85;36.45;;;7.10;99.90;;;;;;5006719;28;20131;-88
2022/05/03 02:05:06;;;;;;;57.45;37.83;;;7.10;99.90;;;;;;4997706;28;20050;-88
2022/05/03 02:07:57;;;;;;;52.08;38.30;;;7.10;99.90;;;;;;4990595;28;20070;-88
2022/05/03 02:10:56;;;;;;;;;;;7.10;99.90;;;;;;5005478;28;20403;-88
2022/05/03 02:17:05;;;;;;;68.40;41.97;;;7.10;99.90;;;;;;5003781;28;20045;-88
2022/05/03 02:20:17;;;;;;;60.72;40.20;;;7.20;99.90;;;;;;4988590;28;20057;-89
2022/05/03 02:23:17;;;;;;;55.15;38.78;;;7.10;99.90;;;;;;4992692;28;20200;-89
2022/05/03 02:26:19;;;;;;;66.20;42.42;;;7.00;99.90;;;;;;5015651;28;20050;-87
2022/05/03 02:29:11;;;;;;;60.47;41.67;;;7.00;99.90;;;;;;5020281;28;20064;-87
2022/05/03 02:32:07;;;;;;;55.90;38.75;;;7.20;99.90;;;;;;4998329;28;20042;-87
2022/05/03 02:35:02;;;;;;;56.70;38.28;;;7.20;99.90;;;;;;5001230;28;20046;-88
2022/05/03 02:37:57;;;;;;;52.47;37.08;;;7.20;99.90;;;;;;4998648;28;20155;-88
2022/05/03 02:40:49;;;;;;;55.83;39.33;;;7.10;99.90;;;;;;5014826;28;20049;-88
2022/05/03 02:43:40;;;;;;;54.28;37.38;;;6.90;99.90;;;;;;5012085;28;20065;-87
2022/05/03 02:47:03;;;;;;;55.95;38.28;;;6.80;99.90;;;;;;5011660;28;20042;-88
2022/05/03 02:49:56;;;;;;;58.47;37.67;;;6.70;99.90;;;;;;4926314;28;20155;-86
2022/05/03 02:52:45;;;;;;;56.63;39.28;;;6.60;99.90;;;;;;5014111;28;20127;-87
2022/05/03 02:56:03;;;;;;;56.78;39.00;;;6.60;99.90;;;;;;4993009;28;20368;-88
2022/05/03 03:01:47;;;;;;;54.00;36.85;;;6.60;99.90;;;;;;5001475;28;20057;-87
2022/05/03 03:02:45;;;;;;;50.13;34.58;;;6.60;99.90;;;;;;5008731;28;20853;-87
2022/05/03 03:05:39;;;;;;;52.67;37.58;;;6.50;99.90;;;;;;5014382;28;20049;-87
2022/05/03 03:08:33;;;;;;;57.63;40.95;;;6.50;99.90;;;;;;5010402;28;20142;-86
2022/05/03 03:11:31;;;;;;;62.45;40.95;;;6.50;99.90;;;;;;5007565;28;20042;-87
2022/05/03 03:14:41;;;;;;;64.35;43.63;;;6.50;99.90;;;;;;5011909;28;20055;-85
2022/05/03 03:17:33;;;;;;;59.42;42.10;;;6.40;99.90;;;;;;5002711;28;20135;-87
2022/05/03 03:20:36;;;;;;;62.50;42.95;;;6.40;99.90;;;;;;5011687;28;20070;-88
2022/05/03 03:23:34;;;;;;;59.90;40.58;;;6.50;99.90;;;;;;4996504;28;20145;-88
2022/05/03 03:26:28;;;;;;;58.47;39.50;;;6.60;99.90;;;;;;5000797;28;20077;-87
2022/05/03 03:29:17;;;;;;;65.47;42.63;;;6.50;99.90;;;;;;5012993;28;20057;-88
2022/05/03 03:32:09;;;;;;;61.78;42.17;;;6.40;99.90;;;;;;5014340;28;20073;-88
2022/05/03 03:34:58;;;;;;;72.88;49.30;;;6.30;99.90;;;;;;5003679;28;20059;-88
2022/05/03 03:37:57;;;;;;;81.35;53.33;;;6.60;99.90;;;;;;5009316;28;20053;-88
2022/05/03 03:40:45;;;;;;;74.32;48.15;;;6.80;99.90;;;;;;5005457;28;20703;-88
2022/05/03 03:43:32;;;;;;;73.82;49.70;;;6.70;99.90;;;;;;5009246;28;20050;-87
2022/05/03 03:46:20;;;;;;;77.07;50.05;;;6.60;99.90;;;;;;5008542;28;20442;-85
2022/05/03 03:49:10;;;;;;;81.15;51.58;;;6.50;99.90;;;;;;4990175;28;20045;-87
2022/05/03 03:51:58;;;;;;;76.75;49.20;;;6.50;99.90;;;;;;5015081;28;20097;-88
2022/05/03 03:54:46;;;;;;;80.68;50.00;;;6.50;99.90;;;;;;5005298;28;20420;-88
2022/05/03 03:57:41;;;;;;;83.35;52.35;;;6.40;99.90;;;;;;5015827;28;20375;-87
2022/05/03 04:00:33;;;;;;;75.20;50.22;;;6.30;99.90;;;;;;5002274;28;20054;-88
2022/05/03 04:03:24;;;;;;;81.60;49.60;;;6.40;99.90;;;;;;5013695;28;20385;-87
2022/05/03 04:06:11;;;;;;;80.38;49.72;;;6.50;99.90;;;;;;5000237;28;20141;-87
2022/05/03 04:08:58;;;;;;;75.80;49.28;;;6.50;99.90;;;;;;5000118;28;20054;-87
2022/05/03 04:11:47;;;;;;;75.00;50.25;;;6.50;99.90;;;;;;5010379;28;20046;-86
2022/05/03 04:14:34;;;;;;;78.85;52.42;;;6.40;99.90;;;;;;5010277;28;20452;-88
2022/05/03 04:17:23;;;;;;;78.88;49.90;;;6.40;99.90;;;;;;4999820;28;20042;-88
2022/05/03 04:20:18;;;;;;;75.63;49.35;;;6.40;99.90;;;;;;5017464;28;20061;-88
2022/05/03 04:23:09;;;;;;;75.03;49.22;;;6.40;99.90;;;;;;5018076;28;20135;-87
2022/05/03 04:25:56;;;;;;;77.93;48.42;;;6.30;99.90;;;;;;5017908;28;20046;-87
2022/05/03 04:28:44;;;;;;;76.60;48.78;;;6.30;99.90;;;;;;5007806;28;20355;-87
2022/05/03 04:31:32;;;;;;;77.05;48.95;;;6.30;99.90;;;;;;5018101;28;20200;-88
2022/05/03 04:34:22;;;;;;;77.53;50.15;;;6.30;99.90;;;;;;5013807;28;20068;-87
2022/05/03 04:37:12;;;;;;;77.43;51.40;;;6.40;99.90;;;;;;5017710;28;20046;-87
2022/05/03 04:39:59;;;;;;;83.68;52.72;;;6.40;99.90;;;;;;4996002;28;20329;-85
2022/05/03 04:42:46;;;;;;;86.72;54.92;;;6.50;99.90;;;;;;5011822;28;20112;-85
2022/05/03 04:49:42;;;;;;;77.00;49.67;;;6.80;99.90;;;;;;5013388;28;20029;-86
2022/05/03 04:52:30;;;;;;;77.53;51.95;;;6.90;99.90;;;;;;5006381;28;20073;-85
2022/05/03 04:55:17;;;;;;;80.00;52.38;;;6.90;99.90;;;;;;4997284;28;20111;-85
2022/05/03 04:58:07;;;;;;;71.30;48.25;;;7.10;99.90;;;;;;5014274;28;20076;-86
2022/05/03 05:00:54;;;;;;;77.93;47.95;;;7.30;99.90;;;;;;5010050;28;20080;-84
2022/05/03 05:03:43;;;;;;;70.60;48.55;;;7.40;99.90;;;;;;5015067;28;20046;-84
2022/05/03 05:06:30;;;;;;;64.28;45.10;;;7.60;99.90;;;;;;5016703;28;20060;-86
2022/05/03 05:09:19;;;;;;;70.43;46.03;;;7.80;99.90;;;;;;5007960;28;20046;-86
2022/05/03 05:12:06;;;;;;;64.72;45.90;;;8.00;99.90;;;;;;5012852;28;20482;-86
2022/05/03 05:14:54;;;;;;;58.88;42.42;;;8.10;99.90;;;;;;5013079;28;20060;-86
2022/05/03 05:17:44;;;;;;;53.35;39.25;;;8.20;99.90;;;;;;5014983;28;20038;-86
2022/05/03 05:20:31;;;;;;;46.38;35.25;;;8.30;99.90;;;;;;5004860;28;20412;-86
2022/05/03 05:23:18;;;;;;;43.33;32.47;;;8.40;99.90;;;;;;4993398;28;20057;-85
2022/05/03 05:26:08;;;;;;;37.75;30.17;;;8.50;99.90;;;;;;5010028;28;20060;-86
2022/05/03 05:28:57;;;;;;;35.88;28.80;;;8.70;99.90;;;;;;4998129;28;20100;-83
2022/05/03 05:31:46;;;;;;;37.22;28.15;;;8.70;99.90;;;;;;4994073;28;20339;-83
2022/05/03 05:34:34;;;;;;;31.60;25.40;;;8.80;99.90;;;;;;5010246;28;20043;-84
2022/05/03 05:37:24;;;;;;;32.70;25.35;;;9.00;99.90;;;;;;4997817;28;20485;-83
2022/05/03 05:40:14;;;;;;;32.17;25.17;;;9.30;99.90;;;;;;5012570;28;20078;-85
2022/05/03 05:43:02;;;;;;;29.88;24.48;;;9.60;99.90;;;;;;5004596;28;20336;-85
2022/05/03 05:45:49;;;;;;;31.80;23.20;;;9.90;99.90;;;;;;5010514;28;20046;-87
2022/05/03 05:48:40;;;;;;;32.22;24.63;;;10.10;99.90;;;;;;5010813;28;20053;-88
2022/05/03 05:51:27;;;;;;;26.73;21.80;;;10.30;99.90;;;;;;5009470;28;20060;-87
2022/05/03 05:54:16;;;;;;;26.25;21.60;;;10.50;99.90;;;;;;5010554;28;20495;-87
2022/05/03 05:57:06;;;;;;;27.65;21.55;;;10.70;99.90;;;;;;4997880;28;20050;-87
2022/05/03 05:59:53;;;;;;;27.38;21.98;;;10.80;99.90;;;;;;5000929;28;20469;-89
2022/05/03 06:02:41;;;;;;;26.17;21.20;;;10.80;99.90;;;;;;5003779;28;20065;-88
2022/05/03 06:05:30;;;;;;;31.40;23.15;;;10.80;99.90;;;;;;5014128;28;20045;-88
2022/05/03 06:08:20;;;;;;;27.13;20.63;;;10.90;99.90;;;;;;5030582;28;20132;-88
2022/05/03 06:11:09;;;;;;;25.88;21.13;;;11.00;99.90;;;;;;5009003;28;20046;-87
2022/05/03 06:13:56;;;;;;;24.27;20.60;;;11.10;99.90;;;;;;5006266;28;20107;-87
2022/05/03 06:17:02;;;;;;;23.20;18.98;;;11.20;99.90;;;;;;5007903;28;20041;-87
2022/05/03 06:19:51;;;;;;;23.15;19.63;;;11.30;99.90;;;;;;5009201;28;20054;-86
2022/05/03 06:22:42;;;;;;;23.33;19.83;;;11.60;99.90;;;;;;5010705;28;20196;-87
2022/05/03 06:25:30;;;;;;;22.45;18.02;;;11.70;99.90;;;;;;4997641;28;20052;-87
2022/05/03 06:28:19;;;;;;;27.42;18.88;;;11.70;99.90;;;;;;4995865;28;20425;-86
2022/05/03 06:31:08;;;;;;;31.52;21.00;;;11.90;99.90;;;;;;5009201;28;20053;-88
2022/05/03 06:34:01;;;;;;;24.45;20.08;;;12.00;99.90;;;;;;5013100;28;20065;-88
2022/05/03 06:36:49;;;;;;;26.35;19.77;;;12.10;99.90;;;;;;4994902;28;20136;-88
2022/05/03 06:39:38;;;;;;;25.98;20.50;;;12.50;99.90;;;;;;5005378;28;20132;-88
2022/05/03 06:42:26;;;;;;;27.02;18.20;;;12.80;99.90;;;;;;5014397;28;20111;-88
2022/05/03 06:45:18;;;;;;;28.23;18.90;;;13.10;99.90;;;;;;5009381;28;20381;-87
2022/05/03 06:48:12;;;;;;;30.38;19.42;;;13.30;99.90;;;;;;5009649;28;20053;-87
2022/05/03 06:51:02;;;;;;;21.20;17.33;;;13.30;99.90;;;;;;5011107;28;20042;-87
2022/05/03 06:53:49;;;;;;;20.42;17.88;;;13.40;99.90;;;;;;5010088;28;20042;-88
2022/05/03 06:56:37;;;;;;;20.90;16.73;;;13.60;99.90;;;;;;5010053;28;20109;-88
2022/05/03 06:59:24;;;;;;;19.13;15.98;;;13.70;99.90;;;;;;5007780;28;20042;-87
2022/05/03 07:02:11;;;;;;;25.45;16.70;;;14.00;99.90;;;;;;4997682;28;20080;-88
2022/05/03 07:05:02;;;;;;;25.83;16.42;;;14.40;99.90;;;;;;5005491;28;20046;-88
2022/05/03 07:07:49;;;;;;;19.23;15.27;;;15.00;99.90;;;;;;5007073;28;20061;-86
2022/05/03 07:10:37;;;;;;;20.95;15.77;;;15.30;99.90;;;;;;5010001;28;20045;-88
2022/05/03 07:13:25;;;;;;;20.08;15.60;;;15.40;99.90;;;;;;5011810;28;20049;-87
2022/05/03 07:16:12;;;;;;;23.27;16.60;;;15.30;99.90;;;;;;4996243;28;20046;-86
2022/05/03 07:25:17;;;;;;;17.02;14.55;;;15.40;99.90;;;;;;5013807;28;20052;-86
2022/05/03 07:28:05;;;;;;;18.65;14.73;;;15.30;99.90;;;;;;5002236;28;20057;-86
2022/05/03 07:30:52;;;;;;;20.13;13.50;;;15.20;99.90;;;;;;5011111;28;20061;-86
2022/05/03 07:33:41;;;;;;;18.35;13.68;;;15.50;99.90;;;;;;4999307;28;20114;-85
2022/05/03 07:36:32;;;;;;;16.17;12.50;;;15.50;99.90;;;;;;5016523;28;20058;-85
2022/05/03 07:39:22;;;;;;;15.55;11.95;;;15.60;99.90;;;;;;4995404;28;20054;-86
2022/05/03 07:42:11;;;;;;;14.10;11.90;;;15.50;99.90;;;;;;5003479;28;20041;-83
2022/05/03 07:45:02;;;;;;;;;;;15.50;99.90;;;;;;5011672;28;20053;-86
2022/05/03 07:47:49;;;;;;;14.65;11.02;;;15.60;99.90;;;;;;5009669;28;19932;-87
2022/05/03 07:50:39;;;;;;;15.50;11.63;;;15.80;99.90;;;;;;5012028;28;20050;-85
2022/05/03 07:53:27;;;;;;;16.42;10.57;;;16.20;99.90;;;;;;4993015;28;20042;-86
2022/05/03 07:56:15;;;;;;;11.98;9.45;;;16.50;99.90;;;;;;5008033;28;20061;-86
2022/05/03 07:59:06;;;;;;;11.60;10.18;;;16.90;99.90;;;;;;5008342;28;20042;-87
2022/05/03 08:01:56;;;;;;;12.65;9.25;;;17.00;99.90;;;;;;5006989;28;20475;-86
2022/05/03 08:04:52;;;;;;;10.85;8.88;;;16.80;99.90;;;;;;5003322;28;20086;-85
2022/05/03 08:07:39;;;;;;;12.27;9.98;;;16.70;99.90;;;;;;5013472;28;20065;-87
2022/05/03 08:10:26;;;;;;;11.60;9.50;;;16.90;99.90;;;;;;5019899;28;20358;-87
2022/05/03 08:13:14;;;;;;;11.40;8.60;;;17.10;99.90;;;;;;4990710;28;20478;-88
2022/05/03 08:16:02;;;;;;;9.02;8.13;;;17.50;99.90;;;;;;5008866;28;20108;-87
2022/05/03 08:18:49;;;;;;;10.88;7.15;;;18.30;99.90;;;;;;5010941;28;20042;-87
2022/05/03 08:21:37;;;;;;;9.73;7.05;;;19.20;95.90;;;;;;4998363;28;20041;-87
2022/05/03 08:24:27;;;;;;;7.07;6.07;;;19.90;95.90;;;;;;5018286;28;20054;-87
2022/05/03 08:27:15;;;;;;;6.95;6.03;;;20.10;91.60;;;;;;4993976;28;20052;-86
2022/05/03 08:30:04;;;;;;;7.10;6.40;;;20.40;91.80;;;;;;5015192;28;20054;-87
2022/05/03 08:32:51;;;;;;;9.38;7.10;;;21.00;82.10;;;;;;5010751;28;20359;-88
2022/05/03 08:35:39;;;;;;;9.57;6.55;;;20.70;87.60;;;;;;5013026;28;20344;-87
2022/05/03 08:44:43;;;;;;;7.35;6.65;;;21.40;85.90;;;;;;5027379;28;20124;-86
2022/05/03 08:47:32;;;;;;;7.00;6.30;;;21.70;85.60;;;;;;5028505;28;20052;-87
2022/05/03 08:50:20;;;;;;;8.10;5.93;;;22.30;80.00;;;;;;5012984;28;20065;-87
2022/05/03 08:53:09;;;;;;;9.30;6.40;;;22.90;76.90;;;;;;5000282;28;20049;-85
2022/05/03 08:55:56;;;;;;;8.93;5.40;;;23.20;75.70;;;;;;5020757;28;20391;-86
2022/05/03 08:58:45;;;;;;;8.27;5.65;;;23.60;67.80;;;;;;5011714;28;20038;-85
2022/05/03 09:01:34;;;;;;;6.00;4.93;;;23.00;66.50;;;;;;5015594;28;20050;-88
2022/05/03 09:04:27;;;;;;;4.88;4.28;;;23.00;67.00;;;;;;5013856;28;20108;-89
2022/05/03 09:07:46;;;;;;;5.15;3.95;;;23.40;59.20;;;;;;5011293;28;20050;-87
2022/05/03 09:10:36;;;;;;;3.17;2.88;;;24.60;59.10;;;;;;4999436;28;20050;-87
2022/05/03 09:13:45;;;;;;;4.57;3.15;;;24.20;53.00;;;;;;5013316;28;20110;-88
2022/05/03 09:16:47;;;;;;;4.07;3.30;;;23.60;58.60;;;;;;5011280;28;20640;-87
2022/05/03 09:19:37;;;;;;;4.53;3.22;;;23.90;57.70;;;;;;5000818;28;20046;-85
2022/05/03 09:25:34;;;;;;;3.80;3.50;;;23.80;59.00;;;;;;5010346;28;20110;-86
2022/05/03 09:28:23;;;;;;;7.95;2.78;;;23.80;55.50;;;;;;5006092;28;20053;-84
2022/05/03 09:31:13;;;;;;;2.30;2.00;;;24.20;54.80;;;;;;5018730;28;20120;-90
2022/05/03 09:34:04;;;;;;;3.53;2.10;;;24.20;52.10;;;;;;4995106;28;20050;-89
2022/05/03 09:36:58;;;;;;;3.38;2.10;;;24.70;54.00;;;;;;5014946;28;20422;-87
2022/05/03 09:39:57;;;;;;;3.50;2.42;;;24.90;50.90;;;;;;5012041;28;20124;-89
2022/05/03 09:42:56;;;;;;;3.47;2.40;;;25.70;51.10;;;;;;5011615;28;20042;-89
2022/05/03 09:46:04;;;;;;;3.03;2.30;;;25.80;49.50;;;;;;5011066;28;20046;-90
2022/05/03 09:48:55;;;;;;;5.38;2.30;;;26.20;48.90;;;;;;4998032;28;20038;-89
2022/05/03 09:51:48;;;;;;;4.57;2.03;;;26.30;46.40;;;;;;5011990;28;20131;-88
2022/05/03 09:54:49;;;;;;;4.40;2.60;;;26.40;47.30;;;;;;5013670;28;20454;-85
2022/05/03 09:57:41;;;;;;;2.20;2.00;;;26.00;44.70;;;;;;5012062;28;20046;-88
2022/05/03 10:00:31;;;;;;;2.50;2.30;;;26.50;48.50;;;;;;4996109;28;20052;-90
2022/05/03 10:03:21;;;;;;;2.58;2.20;;;26.90;47.40;;;;;;5012513;28;20068;-90
2022/05/03 10:06:11;;;;;;;6.78;2.50;;;26.90;45.20;;;;;;5015877;28;20081;-90
2022/05/03 10:09:02;;;;;;;2.47;2.25;;;26.60;44.10;;;;;;5014222;28;20053;-88
2022/05/03 10:11:50;;;;;;;2.33;2.13;;;27.00;45.80;;;;;;5014095;28;20045;-89
2022/05/03 10:14:39;;;;;;;4.43;1.80;;;27.30;46.10;;;;;;5016905;28;20049;-91
2022/05/03 10:20:46;;;;;;;6.43;2.85;;;27.60;44.20;;;;;;5012494;28;20125;-89
2022/05/03 10:23:35;;;;;;;3.13;2.33;;;27.70;39.80;;;;;;5012332;28;20054;-90
2022/05/03 10:26:54;;;;;;;2.70;2.42;;;28.30;42.80;;;;;;5013097;28;20046;-90
2022/05/03 10:30:15;;;;;;;2.63;1.98;;;28.40;38.60;;;;;;5008203;28;20084;-85
2022/05/03 10:33:20;;;;;;;4.32;2.75;;;28.60;43.20;;;;;;5007409;28;20399;-87
2022/05/03 10:36:29;;;;;;;4.72;2.22;;;27.50;40.90;;;;;;4991472;28;20065;-85
2022/05/03 10:39:23;;;;;;;3.53;1.83;;;28.10;38.50;;;;;;5010330;28;20072;-86
2022/05/03 10:42:13;;;;;;;2.70;2.30;;;28.60;39.70;;;;;;5026170;28;20175;-87
2022/05/03 10:45:07;;;;;;;4.13;2.80;;;28.50;39.10;;;;;;5005532;28;20045;-90
2022/05/03 10:47:57;;;;;;;4.57;2.50;;;28.40;41.90;;;;;;5008293;28;20458;-90
2022/05/03 10:50:45;;;;;;;2.50;2.30;;;28.90;38.40;;;;;;5008657;28;20042;-85
2022/05/03 10:53:37;;;;;;;2.72;1.85;;;29.10;39.70;;;;;;5002636;28;20047;-83
2022/05/03 10:56:25;;;;;;;5.22;2.42;;;29.60;41.30;;;;;;5000746;28;20431;-88
2022/05/03 10:59:16;;;;;;;2.92;2.63;;;28.70;38.20;;;;;;5013011;28;20048;-89
2022/05/03 11:02:06;;;;;;;3.60;2.15;;;28.80;38.90;;;;;;5011586;28;20061;-89
2022/05/03 11:05:16;;;;;;;4.28;2.33;;;28.60;41.20;;;;;;4998163;28;20112;-86
2022/05/03 11:08:22;;;;;;;3.78;2.28;;;29.30;37.60;;;;;;5006192;28;20345;-87
2022/05/03 11:11:37;;;;;;;3.88;2.10;;;30.20;38.40;;;;;;5009374;28;20049;-87
2022/05/03 11:14:28;;;;;;;2.88;2.45;;;31.20;38.50;;;;;;5013012;28;20041;-87
2022/05/03 11:17:18;;;;;;;5.53;2.40;;;31.60;37.00;;;;;;5000239;28;20052;-89
2022/05/03 11:20:11;;;;;;;3.33;1.88;;;32.10;32.90;;;;;;5002839;28;20081;-88
2022/05/03 11:22:58;;;;;;;3.63;2.08;;;31.70;37.00;;;;;;5009867;28;20049;-86
2022/05/03 11:25:46;;;;;;;3.88;2.30;;;32.20;34.60;;;;;;4996024;28;20447;-88
2022/05/03 11:28:33;;;;;;;3.75;2.35;;;33.00;33.00;;;;;;5011810;28;20104;-85
2022/05/03 11:31:25;;;;;;;2.22;1.85;;;34.00;32.60;;;;;;4999995;28;20042;-87
2022/05/03 11:34:13;;;;;;;;;;;34.40;29.90;;;;;;4995600;28;20065;-88
2022/05/03 11:37:04;;;;;;;2.08;1.90;;;33.80;31.30;;;;;;5009117;28;19922;-89
2022/05/03 11:39:59;;;;;;;3.38;2.10;;;33.20;30.20;;;;;;5014665;28;20336;-86
2022/05/03 11:42:47;;;;;;;2.88;2.30;;;31.80;31.80;;;;;;4992770;28;20343;-85
2022/05/03 11:45:39;;;;;;;2.55;2.10;;;30.60;35.00;;;;;;5008915;28;20478;-90
2022/05/03 11:48:29;;;;;;;3.38;2.50;;;30.20;32.70;;;;;;5008957;28;20057;-87
2022/05/03 11:57:42;;;;;;;3.67;2.58;;;29.80;34.80;;;;;;5010565;28;20052;-87
2022/05/03 12:00:30;;;;;;;3.15;2.13;;;28.60;34.80;;;;;;5014211;28;20042;-87
2022/05/03 12:03:17;;;;;;;3.70;2.33;;;28.60;35.90;;;;;;5022836;28;20509;-87
2022/05/03 12:06:04;;;;;;;3.75;3.03;;;28.00;34.90;;;;;;5000154;28;20046;-87
2022/05/03 12:08:55;;;;;;;4.53;2.50;;;25.40;39.60;;;;;;5005703;28;20068;-88
2022/05/03 12:15:15;;;;;;;5.22;3.13;;;22.80;48.00;;;;;;5008783;28;20053;-85
2022/05/03 12:18:02;;;;;;;;;;;22.60;48.30;;;;;;5010996;28;20121;-87
2022/05/03 12:21:09;;;;;;;6.10;3.67;;;22.40;47.80;;;;;;5016820;28;19926;-90
2022/05/03 12:24:02;;;;;;;3.55;3.10;;;22.50;46.00;;;;;;5011514;28;20052;-87
2022/05/03 12:26:50;;;;;;;4.57;2.88;;;23.70;43.50;;;;;;5011775;28;20410;-88
2022/05/03 12:29:47;;;;;;;4.00;2.83;;;25.50;41.30;;;;;;5009263;28;20057;-89
2022/05/03 12:32:35;;;;;;;4.43;3.13;;;26.70;37.30;;;;;;5018789;28;20101;-89
2022/05/03 12:35:31;;;;;;;4.32;3.30;;;25.40;37.70;;;;;;5012534;28;20046;-87
2022/05/03 12:38:24;;;;;;;7.07;3.15;;;23.70;42.50;;;;;;5013446;28;20363;-89
2022/05/03 12:41:31;;;;;;;4.15;3.25;;;22.50;44.70;;;;;;5010583;28;20038;-88
2022/05/03 12:44:21;;;;;;;4.38;3.55;;;21.50;46.20;;;;;;5013721;28;20053;-88
2022/05/03 12:47:11;;;;;;;3.72;3.38;;;21.10;48.40;;;;;;5012229;28;20049;-89
2022/05/03 12:49:59;;;;;;;5.47;3.40;;;20.90;50.00;;;;;;5009460;28;20076;-88
2022/05/03 12:52:52;;;;;;;3.38;3.08;;;20.70;50.40;;;;;;5025240;28;20108;-86
2022/05/03 12:55:39;;;;;;;5.13;3.50;;;20.70;51.30;;;;;;5030162;28;20060;-89
2022/05/03 12:58:27;;;;;;;5.07;3.17;;;20.70;51.70;;;;;;5024041;28;20340;-85
2022/05/03 13:01:16;;;;;;;5.20;3.20;;;20.50;52.10;;;;;;5004702;28;20120;-85
2022/05/03 13:04:06;;;;;;;4.82;3.50;;;20.30;53.30;;;;;;5024781;28;20040;-83
2022/05/03 13:06:57;;;;;;;3.92;3.38;;;20.00;53.20;;;;;;5011509;28;20046;-86
2022/05/03 13:09:47;;;;;;;6.93;3.65;;;19.50;55.10;;;;;;5030479;28;20129;-88
2022/05/03 13:12:35;;;;;;;12.52;4.85;;;19.60;62.20;;;;;;5031835;28;20037;-83
2022/05/03 13:15:23;;;;;;;8.98;5.60;;;18.90;84.70;;;;;;5019514;28;20097;-84
2022/05/03 13:18:10;;;;;;;13.02;5.80;;;17.20;99.90;;;;;;5025289;28;20050;-86
2022/05/03 13:20:58;;;;;;;7.43;6.63;;;15.80;99.90;;;;;;5018296;28;20117;-89
2022/05/03 13:23:45;;;;;;;10.30;7.68;;;15.00;99.90;;;;;;5014129;28;20522;-85
2022/05/03 13:26:37;;;;;;;13.38;7.85;;;14.40;99.90;;;;;;5004930;28;20042;-87
2022/05/03 13:29:25;;;;;;;10.63;8.57;;;14.00;99.90;;;;;;5013825;28;20068;-87
2022/05/03 13:32:12;;;;;;;15.90;9.75;;;13.80;99.90;;;;;;5013353;28;20050;-89
2022/05/03 13:34:59;;;;;;;12.27;8.48;;;13.50;99.90;;;;;;5004501;28;20706;-85
2022/05/03 13:40:55;;;;;;;12.93;9.45;;;13.20;99.90;;;;;;5031837;28;20049;-88
2022/05/03 13:43:42;;;;;;;14.77;10.32;;;13.00;99.90;;;;;;5013476;28;20064;-85
2022/05/03 13:46:30;;;;;;;19.20;10.77;;;12.90;99.90;;;;;;5028307;28;20050;-87
2022/05/03 13:49:19;;;;;;;18.77;12.10;;;12.90;99.90;;;;;;5010917;28;20050;-88
2022/05/03 13:52:10;;;;;;;24.02;13.13;;;13.00;99.90;;;;;;5010877;28;20042;-89
2022/05/03 13:54:59;;;;;;;18.88;13.68;;;12.90;99.90;;;;;;5011937;28;20034;-86
2022/05/03 13:57:47;;;;;;;17.25;13.13;;;12.90;99.90;;;;;;5003538;28;20037;-89
2022/05/03 14:00:40;;;;;;;16.92;12.85;;;13.00;99.90;;;;;;5021384;28;20128;-87
2022/05/03 14:03:29;;;;;;;16.45;10.30;;;13.10;99.90;;;;;;5018865;28;20045;-86
2022/05/03 14:06:20;;;;;;;16.85;11.05;;;13.20;99.90;;;;;;5013344;28;20072;-88
2022/05/03 14:09:07;;;;;;;11.90;10.45;;;13.30;99.90;;;;;;5011215;28;20181;-87
2022/05/03 14:11:59;;;;;;;11.85;9.52;;;13.40;99.90;;;;;;5016912;28;20050;-91
2022/05/03 14:14:46;;;;;;;12.38;9.10;;;13.50;99.90;;;;;;5003565;28;20042;-89
2022/05/03 14:17:35;;;;;;;11.20;9.25;;;13.60;99.90;;;;;;5010428;28;20041;-82
2022/05/03 14:20:26;;;;;;;11.43;8.25;;;13.60;99.90;;;;;;5007020;28;20076;-88
2022/05/03 14:23:13;;;;;;;10.18;7.53;;;13.70;99.90;;;;;;5014464;28;20042;-89
2022/05/03 14:26:00;;;;;;;7.85;7.03;;;13.80;99.90;;;;;;4998999;28;20042;-89
2022/05/03 14:28:49;;;;;;;7.28;6.53;;;14.00;99.90;;;;;;5009231;28;20356;-90
2022/05/03 14:31:42;;;;;;;8.57;7.18;;;14.10;99.90;;;;;;5020453;28;20156;-87
2022/05/03 14:34:29;;;;;;;10.38;6.30;;;14.40;99.90;;;;;;5016797;28;20061;-89
2022/05/03 14:37:18;;;;;;;7.85;5.45;;;14.50;99.90;;;;;;5017928;28;20056;-87
2022/05/03 14:40:06;;;;;;;10.07;6.60;;;14.60;99.90;;;;;;5008591;28;20128;-89
2022/05/03 14:42:53;;;;;;;10.57;6.10;;;14.70;99.90;;;;;;5016311;28;20192;-86
2022/05/03 14:45:41;;;;;;;9.68;5.93;;;14.80;99.90;;;;;;5013611;28;20113;-86
2022/05/03 14:48:28;;;;;;;7.60;5.95;;;15.00;99.90;;;;;;5008088;28;20374;-87
2022/05/03 14:51:16;;;;;;;6.55;5.25;;;15.20;99.90;;;;;;4994540;28;20046;-90
2022/05/03 14:54:05;;;;;;;7.50;5.50;;;15.40;99.90;;;;;;5009820;28;20436;-89
2022/05/03 15:03:06;;;;;;;7.45;4.68;;;15.70;99.90;;;;;;5012665;28;20048;-90
2022/05/03 15:05:57;;;;;;;11.07;5.65;;;15.80;99.90;;;;;;4999686;28;20048;-87
2022/05/03 15:08:44;;;;;;;8.07;6.20;;;15.80;99.90;;;;;;5008980;28;20456;-88
2022/05/03 15:11:33;;;;;;;8.88;6.00;;;15.80;99.90;;;;;;5012927;28;20037;-87
2022/05/03 15:14:21;;;;;;;6.82;6.10;;;16.00;99.90;;;;;;4998061;28;20046;-86
2022/05/03 15:17:08;;;;;;;5.85;5.15;;;16.10;99.90;;;;;;5007131;28;20056;-87
2022/05/03 15:19:56;;;;;;;4.68;4.13;;;16.30;99.90;;;;;;5009880;28;20042;-89
2022/05/03 15:25:52;;;;;;;4.97;3.35;;;16.70;99.90;;;;;;5012804;28;20152;-90
2022/05/03 15:28:46;;;;;;;5.22;3.50;;;16.70;99.90;;;;;;5016186;28;20060;-88
2022/05/03 15:31:34;;;;;;;5.15;4.65;;;16.60;99.90;;;;;;4999811;28;20042;-88
2022/05/03 15:34:24;;;;;;;7.05;5.22;;;16.30;99.90;;;;;;4991465;28;20435;-87
2022/05/03 15:37:12;;;;;;;8.05;5.63;;;15.90;99.90;;;;;;5006294;28;20136;-87
2022/05/03 15:40:03;;;;;;;7.10;5.47;;;15.80;99.90;;;;;;4990415;28;20053;-86
2022/05/03 15:42:50;;;;;;;7.07;6.18;;;15.60;99.90;;;;;;5014722;28;20046;-85